sensor_id;sensor_type;location;lat;lon;timestamp;temperature;humidity
41928;DHT22;27616;51.420;6.788;2022-07-25T00:00:09;23.20;93.60
41928;DHT22;27616;51.420;6.788;2022-07-25T00:02:35;23.20;93.50
41928;DHT22;27616;51.420;6.788;2022-07-25T00:05:02;23.20;93.40
41928;DHT22;27616;51.420;6.788;2022-07-25T00:07:28;23.20;93.30
41928;DHT22;27616;51.420;6.788;2022-07-25T00:09:54;23.10;93.50
41928;DHT22;27616;51.420;6.788;2022-07-25T00:12:20;23.10;93.10
41928;DHT22;27616;51.420;6.788;2022-07-25T00:14:46;23.10;93.20
41928;DHT22;27616;51.420;6.788;2022-07-25T00:17:13;23.10;93.20
41928;DHT22;27616;51.420;6.788;2022-07-25T00:19:39;23.10;93.10
41928;DHT22;27616;51.420;6.788;2022-07-25T00:22:05;23.10;93.20
41928;DHT22;27616;51.420;6.788;2022-07-25T00:24:31;23.20;93.00
41928;DHT22;27616;51.420;6.788;2022-07-25T00:26:57;23.20;92.50
41928;DHT22;27616;51.420;6.788;2022-07-25T00:29:23;23.20;92.40
41928;DHT22;27616;51.420;6.788;2022-07-25T00:31:49;23.20;92.40
41928;DHT22;27616;51.420;6.788;2022-07-25T00:34:15;23.20;92.50
41928;DHT22;27616;51.420;6.788;2022-07-25T00:36:41;23.20;92.70
41928;DHT22;27616;51.420;6.788;2022-07-25T00:39:06;23.20;92.70
41928;DHT22;27616;51.420;6.788;2022-07-25T00:41:32;23.20;92.80
41928;DHT22;27616;51.420;6.788;2022-07-25T00:43:58;23.20;92.80
41928;DHT22;27616;51.420;6.788;2022-07-25T00:46:24;23.20;92.80
41928;DHT22;27616;51.420;6.788;2022-07-25T00:48:50;23.10;92.80
41928;DHT22;27616;51.420;6.788;2022-07-25T00:51:16;23.10;92.80
41928;DHT22;27616;51.420;6.788;2022-07-25T00:53:43;23.10;92.70
41928;DHT22;27616;51.420;6.788;2022-07-25T00:56:10;23.20;92.70
41928;DHT22;27616;51.420;6.788;2022-07-25T00:58:36;23.20;92.80
41928;DHT22;27616;51.420;6.788;2022-07-25T01:01:02;23.20;92.80
41928;DHT22;27616;51.420;6.788;2022-07-25T01:03:28;23.10;92.90
41928;DHT22;27616;51.420;6.788;2022-07-25T01:05:54;23.10;93.00
41928;DHT22;27616;51.420;6.788;2022-07-25T01:08:21;23.10;93.20
41928;DHT22;27616;51.420;6.788;2022-07-25T01:10:48;23.10;93.30
41928;DHT22;27616;51.420;6.788;2022-07-25T01:13:14;23.00;93.30
41928;DHT22;27616;51.420;6.788;2022-07-25T01:15:41;23.00;93.40
41928;DHT22;27616;51.420;6.788;2022-07-25T01:18:07;22.90;93.30
41928;DHT22;27616;51.420;6.788;2022-07-25T01:20:33;22.80;93.30
41928;DHT22;27616;51.420;6.788;2022-07-25T01:22:59;22.80;93.40
41928;DHT22;27616;51.420;6.788;2022-07-25T01:25:26;22.80;93.40
41928;DHT22;27616;51.420;6.788;2022-07-25T01:27:52;22.70;93.50
41928;DHT22;27616;51.420;6.788;2022-07-25T01:30:19;22.70;93.50
41928;DHT22;27616;51.420;6.788;2022-07-25T01:32:46;22.70;93.50
41928;DHT22;27616;51.420;6.788;2022-07-25T01:35:13;22.70;93.50
41928;DHT22;27616;51.420;6.788;2022-07-25T01:37:39;22.60;93.50
41928;DHT22;27616;51.420;6.788;2022-07-25T01:40:06;22.60;93.60
41928;DHT22;27616;51.420;6.788;2022-07-25T01:42:32;22.60;93.60
41928;DHT22;27616;51.420;6.788;2022-07-25T01:44:58;22.50;93.60
41928;DHT22;27616;51.420;6.788;2022-07-25T01:47:24;22.50;93.70
41928;DHT22;27616;51.420;6.788;2022-07-25T01:49:50;22.40;93.80
41928;DHT22;27616;51.420;6.788;2022-07-25T01:52:17;22.40;93.90
41928;DHT22;27616;51.420;6.788;2022-07-25T01:54:43;22.40;94.00
41928;DHT22;27616;51.420;6.788;2022-07-25T01:57:09;22.30;94.10
41928;DHT22;27616;51.420;6.788;2022-07-25T01:59:37;22.30;94.10
41928;DHT22;27616;51.420;6.788;2022-07-25T02:02:04;22.30;94.20
41928;DHT22;27616;51.420;6.788;2022-07-25T02:04:30;22.20;94.20
41928;DHT22;27616;51.420;6.788;2022-07-25T02:06:57;22.30;94.20
41928;DHT22;27616;51.420;6.788;2022-07-25T02:09:23;22.20;94.20
41928;DHT22;27616;51.420;6.788;2022-07-25T02:11:48;22.20;94.10
41928;DHT22;27616;51.420;6.788;2022-07-25T02:14:14;22.20;94.00
41928;DHT22;27616;51.420;6.788;2022-07-25T02:16:40;22.20;94.00
41928;DHT22;27616;51.420;6.788;2022-07-25T02:19:06;22.20;94.00
41928;DHT22;27616;51.420;6.788;2022-07-25T02:21:32;22.20;94.00
41928;DHT22;27616;51.420;6.788;2022-07-25T02:23:58;22.20;94.00
41928;DHT22;27616;51.420;6.788;2022-07-25T02:26:24;22.20;94.00
41928;DHT22;27616;51.420;6.788;2022-07-25T02:28:50;22.20;93.90
41928;DHT22;27616;51.420;6.788;2022-07-25T02:31:16;22.20;93.80
41928;DHT22;27616;51.420;6.788;2022-07-25T02:33:42;22.20;93.80
41928;DHT22;27616;51.420;6.788;2022-07-25T02:36:10;22.20;93.80
41928;DHT22;27616;51.420;6.788;2022-07-25T02:38:37;22.20;93.70
41928;DHT22;27616;51.420;6.788;2022-07-25T02:41:03;22.20;93.70
41928;DHT22;27616;51.420;6.788;2022-07-25T02:43:29;22.20;93.60
41928;DHT22;27616;51.420;6.788;2022-07-25T02:45:55;22.10;93.60
41928;DHT22;27616;51.420;6.788;2022-07-25T02:48:21;22.20;93.60
41928;DHT22;27616;51.420;6.788;2022-07-25T02:50:47;22.20;93.60
41928;DHT22;27616;51.420;6.788;2022-07-25T02:53:13;22.20;93.60
41928;DHT22;27616;51.420;6.788;2022-07-25T02:55:39;22.20;93.60
41928;DHT22;27616;51.420;6.788;2022-07-25T02:58:05;22.20;93.60
41928;DHT22;27616;51.420;6.788;2022-07-25T03:00:32;22.20;93.60
41928;DHT22;27616;51.420;6.788;2022-07-25T03:02:58;22.20;93.60
41928;DHT22;27616;51.420;6.788;2022-07-25T03:05:24;22.20;93.50
41928;DHT22;27616;51.420;6.788;2022-07-25T03:07:50;22.20;93.50
41928;DHT22;27616;51.420;6.788;2022-07-25T03:10:16;22.20;93.30
41928;DHT22;27616;51.420;6.788;2022-07-25T03:12:43;22.20;93.30
41928;DHT22;27616;51.420;6.788;2022-07-25T03:15:10;22.20;93.20
41928;DHT22;27616;51.420;6.788;2022-07-25T03:17:37;22.20;93.10
41928;DHT22;27616;51.420;6.788;2022-07-25T03:20:04;22.20;93.10
41928;DHT22;27616;51.420;6.788;2022-07-25T03:22:31;22.20;93.10
41928;DHT22;27616;51.420;6.788;2022-07-25T03:24:57;22.20;93.20
41928;DHT22;27616;51.420;6.788;2022-07-25T03:27:23;22.20;93.20
41928;DHT22;27616;51.420;6.788;2022-07-25T03:29:48;22.10;93.20
41928;DHT22;27616;51.420;6.788;2022-07-25T03:32:14;22.10;93.20
41928;DHT22;27616;51.420;6.788;2022-07-25T03:34:40;22.10;93.20
41928;DHT22;27616;51.420;6.788;2022-07-25T03:37:06;22.10;93.30
41928;DHT22;27616;51.420;6.788;2022-07-25T03:39:32;22.10;93.30
41928;DHT22;27616;51.420;6.788;2022-07-25T03:41:58;22.10;93.30
41928;DHT22;27616;51.420;6.788;2022-07-25T03:44:24;22.10;93.30
41928;DHT22;27616;51.420;6.788;2022-07-25T03:46:50;22.10;93.30
41928;DHT22;27616;51.420;6.788;2022-07-25T03:49:17;22.10;93.30
41928;DHT22;27616;51.420;6.788;2022-07-25T03:51:43;22.10;93.40
41928;DHT22;27616;51.420;6.788;2022-07-25T03:54:09;22.10;93.30
41928;DHT22;27616;51.420;6.788;2022-07-25T03:56:44;22.10;93.30
41928;DHT22;27616;51.420;6.788;2022-07-25T03:59:12;22.10;93.30
41928;DHT22;27616;51.420;6.788;2022-07-25T04:01:39;22.10;93.20
41928;DHT22;27616;51.420;6.788;2022-07-25T04:04:05;22.10;93.20
41928;DHT22;27616;51.420;6.788;2022-07-25T04:06:31;22.10;93.10
41928;DHT22;27616;51.420;6.788;2022-07-25T04:08:57;22.10;93.10
41928;DHT22;27616;51.420;6.788;2022-07-25T04:11:23;22.10;93.10
41928;DHT22;27616;51.420;6.788;2022-07-25T04:13:49;22.10;93.10
41928;DHT22;27616;51.420;6.788;2022-07-25T04:16:16;22.10;93.10
41928;DHT22;27616;51.420;6.788;2022-07-25T04:18:42;22.10;92.90
41928;DHT22;27616;51.420;6.788;2022-07-25T04:21:08;22.20;92.90
41928;DHT22;27616;51.420;6.788;2022-07-25T04:23:34;22.20;92.80
41928;DHT22;27616;51.420;6.788;2022-07-25T04:26:01;22.20;92.80
41928;DHT22;27616;51.420;6.788;2022-07-25T04:28:27;22.20;92.90
41928;DHT22;27616;51.420;6.788;2022-07-25T04:30:53;22.30;92.90
41928;DHT22;27616;51.420;6.788;2022-07-25T04:33:20;22.30;92.90
41928;DHT22;27616;51.420;6.788;2022-07-25T04:35:46;22.30;92.90
41928;DHT22;27616;51.420;6.788;2022-07-25T04:38:12;22.30;92.80
41928;DHT22;27616;51.420;6.788;2022-07-25T04:40:38;22.30;92.80
41928;DHT22;27616;51.420;6.788;2022-07-25T04:43:04;22.30;92.80
41928;DHT22;27616;51.420;6.788;2022-07-25T04:45:31;22.40;92.80
41928;DHT22;27616;51.420;6.788;2022-07-25T04:47:57;22.40;92.70
41928;DHT22;27616;51.420;6.788;2022-07-25T04:50:23;22.40;92.70
41928;DHT22;27616;51.420;6.788;2022-07-25T04:52:49;22.40;92.70
41928;DHT22;27616;51.420;6.788;2022-07-25T04:55:15;22.40;92.70
41928;DHT22;27616;51.420;6.788;2022-07-25T04:57:41;22.40;92.60
41928;DHT22;27616;51.420;6.788;2022-07-25T05:00:09;22.50;92.60
41928;DHT22;27616;51.420;6.788;2022-07-25T05:02:35;22.50;92.60
41928;DHT22;27616;51.420;6.788;2022-07-25T05:05:01;22.50;92.60
41928;DHT22;27616;51.420;6.788;2022-07-25T05:07:27;22.50;92.50
41928;DHT22;27616;51.420;6.788;2022-07-25T05:09:53;22.50;92.40
41928;DHT22;27616;51.420;6.788;2022-07-25T05:12:19;22.60;92.30
41928;DHT22;27616;51.420;6.788;2022-07-25T05:14:45;22.60;92.20
41928;DHT22;27616;51.420;6.788;2022-07-25T05:17:11;22.60;92.30
41928;DHT22;27616;51.420;6.788;2022-07-25T05:19:37;22.60;92.30
41928;DHT22;27616;51.420;6.788;2022-07-25T05:22:03;22.70;92.10
41928;DHT22;27616;51.420;6.788;2022-07-25T05:24:33;22.70;92.00
41928;DHT22;27616;51.420;6.788;2022-07-25T05:27:00;22.70;91.90
41928;DHT22;27616;51.420;6.788;2022-07-25T05:29:26;22.70;91.90
41928;DHT22;27616;51.420;6.788;2022-07-25T05:31:52;22.80;92.00
41928;DHT22;27616;51.420;6.788;2022-07-25T05:34:18;22.70;92.10
41928;DHT22;27616;51.420;6.788;2022-07-25T05:36:45;22.80;92.10
41928;DHT22;27616;51.420;6.788;2022-07-25T05:39:11;22.80;92.00
41928;DHT22;27616;51.420;6.788;2022-07-25T05:41:37;22.80;92.10
41928;DHT22;27616;51.420;6.788;2022-07-25T05:44:03;22.80;92.10
41928;DHT22;27616;51.420;6.788;2022-07-25T05:46:32;22.80;92.20
41928;DHT22;27616;51.420;6.788;2022-07-25T05:48:58;22.80;92.00
41928;DHT22;27616;51.420;6.788;2022-07-25T05:51:24;22.80;92.10
41928;DHT22;27616;51.420;6.788;2022-07-25T05:53:50;22.80;92.20
41928;DHT22;27616;51.420;6.788;2022-07-25T05:56:15;22.80;92.20
41928;DHT22;27616;51.420;6.788;2022-07-25T05:58:41;22.80;92.30
41928;DHT22;27616;51.420;6.788;2022-07-25T06:01:10;22.90;92.30
41928;DHT22;27616;51.420;6.788;2022-07-25T06:03:37;22.80;92.30
41928;DHT22;27616;51.420;6.788;2022-07-25T06:06:03;22.80;92.20
41928;DHT22;27616;51.420;6.788;2022-07-25T06:08:29;22.90;92.00
41928;DHT22;27616;51.420;6.788;2022-07-25T06:10:58;22.90;91.90
41928;DHT22;27616;51.420;6.788;2022-07-25T06:13:25;22.90;91.80
41928;DHT22;27616;51.420;6.788;2022-07-25T06:15:52;22.90;91.90
41928;DHT22;27616;51.420;6.788;2022-07-25T06:18:18;23.00;91.90
41928;DHT22;27616;51.420;6.788;2022-07-25T06:20:44;23.00;91.90
41928;DHT22;27616;51.420;6.788;2022-07-25T06:23:10;23.00;91.90
41928;DHT22;27616;51.420;6.788;2022-07-25T06:25:36;23.10;91.90
41928;DHT22;27616;51.420;6.788;2022-07-25T06:28:02;23.10;91.80
41928;DHT22;27616;51.420;6.788;2022-07-25T06:30:28;23.10;91.70
41928;DHT22;27616;51.420;6.788;2022-07-25T06:32:54;23.20;91.60
41928;DHT22;27616;51.420;6.788;2022-07-25T06:35:20;23.20;91.40
41928;DHT22;27616;51.420;6.788;2022-07-25T06:37:46;23.30;91.30
41928;DHT22;27616;51.420;6.788;2022-07-25T06:40:12;23.30;91.30
41928;DHT22;27616;51.420;6.788;2022-07-25T06:42:40;23.40;91.50
41928;DHT22;27616;51.420;6.788;2022-07-25T06:45:07;23.50;91.60
41928;DHT22;27616;51.420;6.788;2022-07-25T06:47:34;23.50;91.40
41928;DHT22;27616;51.420;6.788;2022-07-25T06:50:00;23.60;91.30
41928;DHT22;27616;51.420;6.788;2022-07-25T06:52:26;23.60;91.10
41928;DHT22;27616;51.420;6.788;2022-07-25T06:54:52;23.60;91.00
41928;DHT22;27616;51.420;6.788;2022-07-25T06:57:18;23.70;90.90
41928;DHT22;27616;51.420;6.788;2022-07-25T06:59:44;23.70;91.00
41928;DHT22;27616;51.420;6.788;2022-07-25T07:02:10;23.80;90.90
41928;DHT22;27616;51.420;6.788;2022-07-25T07:04:37;23.80;90.90
41928;DHT22;27616;51.420;6.788;2022-07-25T07:07:03;23.80;90.90
41928;DHT22;27616;51.420;6.788;2022-07-25T07:09:29;23.90;90.90
41928;DHT22;27616;51.420;6.788;2022-07-25T07:11:55;24.00;90.90
41928;DHT22;27616;51.420;6.788;2022-07-25T07:14:21;24.00;90.90
41928;DHT22;27616;51.420;6.788;2022-07-25T07:16:47;24.10;90.90
41928;DHT22;27616;51.420;6.788;2022-07-25T07:19:14;24.20;90.80
41928;DHT22;27616;51.420;6.788;2022-07-25T07:21:41;24.20;90.60
41928;DHT22;27616;51.420;6.788;2022-07-25T07:24:08;24.30;90.70
41928;DHT22;27616;51.420;6.788;2022-07-25T07:26:34;24.30;90.60
41928;DHT22;27616;51.420;6.788;2022-07-25T07:29:00;24.40;90.50
41928;DHT22;27616;51.420;6.788;2022-07-25T07:31:28;24.50;90.50
41928;DHT22;27616;51.420;6.788;2022-07-25T07:33:54;24.50;90.40
41928;DHT22;27616;51.420;6.788;2022-07-25T07:36:21;24.60;90.40
41928;DHT22;27616;51.420;6.788;2022-07-25T07:38:47;24.70;90.10
41928;DHT22;27616;51.420;6.788;2022-07-25T07:41:14;24.70;89.80
41928;DHT22;27616;51.420;6.788;2022-07-25T07:43:40;24.80;89.80
41928;DHT22;27616;51.420;6.788;2022-07-25T07:46:07;24.90;89.60
41928;DHT22;27616;51.420;6.788;2022-07-25T07:48:33;25.00;89.20
41928;DHT22;27616;51.420;6.788;2022-07-25T07:51:00;25.10;88.50
41928;DHT22;27616;51.420;6.788;2022-07-25T07:53:27;25.10;88.50
41928;DHT22;27616;51.420;6.788;2022-07-25T07:56:12;25.10;88.50
41928;DHT22;27616;51.420;6.788;2022-07-25T07:58:38;25.20;88.60
41928;DHT22;27616;51.420;6.788;2022-07-25T08:01:05;25.20;87.30
41928;DHT22;27616;51.420;6.788;2022-07-25T08:03:31;25.30;86.90
41928;DHT22;27616;51.420;6.788;2022-07-25T08:05:57;25.30;85.40
41928;DHT22;27616;51.420;6.788;2022-07-25T08:08:24;25.40;85.50
41928;DHT22;27616;51.420;6.788;2022-07-25T08:10:50;25.50;85.50
41928;DHT22;27616;51.420;6.788;2022-07-25T08:13:19;25.50;85.50
41928;DHT22;27616;51.420;6.788;2022-07-25T08:15:47;25.50;85.60
41928;DHT22;27616;51.420;6.788;2022-07-25T08:18:13;25.60;85.90
41928;DHT22;27616;51.420;6.788;2022-07-25T08:20:39;25.60;86.10
41928;DHT22;27616;51.420;6.788;2022-07-25T08:23:06;25.60;85.40
41928;DHT22;27616;51.420;6.788;2022-07-25T08:25:34;25.70;85.10
41928;DHT22;27616;51.420;6.788;2022-07-25T08:28:00;25.80;84.60
41928;DHT22;27616;51.420;6.788;2022-07-25T08:30:26;25.80;85.10
41928;DHT22;27616;51.420;6.788;2022-07-25T08:32:57;25.70;85.40
41928;DHT22;27616;51.420;6.788;2022-07-25T08:35:28;25.70;85.50
41928;DHT22;27616;51.420;6.788;2022-07-25T08:37:55;25.70;86.10
41928;DHT22;27616;51.420;6.788;2022-07-25T08:40:23;25.60;86.00
41928;DHT22;27616;51.420;6.788;2022-07-25T08:42:51;25.60;86.10
41928;DHT22;27616;51.420;6.788;2022-07-25T08:45:17;25.60;86.60
41928;DHT22;27616;51.420;6.788;2022-07-25T08:47:46;25.50;87.00
41928;DHT22;27616;51.420;6.788;2022-07-25T08:50:14;25.50;86.80
41928;DHT22;27616;51.420;6.788;2022-07-25T08:52:43;25.50;86.60
41928;DHT22;27616;51.420;6.788;2022-07-25T08:55:14;25.50;86.30
41928;DHT22;27616;51.420;6.788;2022-07-25T08:57:41;25.50;86.10
41928;DHT22;27616;51.420;6.788;2022-07-25T09:00:15;25.40;86.10
41928;DHT22;27616;51.420;6.788;2022-07-25T09:02:41;25.40;86.60
41928;DHT22;27616;51.420;6.788;2022-07-25T09:05:08;25.40;86.50
41928;DHT22;27616;51.420;6.788;2022-07-25T09:07:38;25.50;86.50
41928;DHT22;27616;51.420;6.788;2022-07-25T09:10:26;25.50;87.10
41928;DHT22;27616;51.420;6.788;2022-07-25T09:13:05;25.60;86.60
41928;DHT22;27616;51.420;6.788;2022-07-25T09:15:34;25.70;87.00
41928;DHT22;27616;51.420;6.788;2022-07-25T09:18:02;25.70;86.80
41928;DHT22;27616;51.420;6.788;2022-07-25T09:20:47;25.70;86.80
41928;DHT22;27616;51.420;6.788;2022-07-25T09:23:25;25.80;86.20
41928;DHT22;27616;51.420;6.788;2022-07-25T09:25:51;25.70;86.30
41928;DHT22;27616;51.420;6.788;2022-07-25T09:28:18;25.70;86.30
41928;DHT22;27616;51.420;6.788;2022-07-25T09:30:59;25.60;86.40
41928;DHT22;27616;51.420;6.788;2022-07-25T09:33:27;25.70;86.50
41928;DHT22;27616;51.420;6.788;2022-07-25T09:35:54;25.70;87.30
41928;DHT22;27616;51.420;6.788;2022-07-25T09:38:21;25.70;87.50
41928;DHT22;27616;51.420;6.788;2022-07-25T09:40:57;25.70;88.00
41928;DHT22;27616;51.420;6.788;2022-07-25T09:43:42;25.80;87.00
41928;DHT22;27616;51.420;6.788;2022-07-25T09:46:09;25.80;87.50
41928;DHT22;27616;51.420;6.788;2022-07-25T09:48:37;25.80;87.10
41928;DHT22;27616;51.420;6.788;2022-07-25T09:51:05;25.80;86.50
41928;DHT22;27616;51.420;6.788;2022-07-25T09:53:32;25.80;85.80
41928;DHT22;27616;51.420;6.788;2022-07-25T09:55:58;25.70;85.50
41928;DHT22;27616;51.420;6.788;2022-07-25T09:58:28;25.70;86.10
41928;DHT22;27616;51.420;6.788;2022-07-25T10:01:04;25.70;86.10
41928;DHT22;27616;51.420;6.788;2022-07-25T10:03:50;25.70;86.10
41928;DHT22;27616;51.420;6.788;2022-07-25T10:06:21;25.60;85.10
41928;DHT22;27616;51.420;6.788;2022-07-25T10:08:49;25.60;84.50
41928;DHT22;27616;51.420;6.788;2022-07-25T10:11:22;25.50;84.20
41928;DHT22;27616;51.420;6.788;2022-07-25T10:13:48;25.60;84.10
41928;DHT22;27616;51.420;6.788;2022-07-25T10:16:17;25.50;84.50
41928;DHT22;27616;51.420;6.788;2022-07-25T10:18:47;25.50;84.50
41928;DHT22;27616;51.420;6.788;2022-07-25T10:21:14;25.50;84.80
41928;DHT22;27616;51.420;6.788;2022-07-25T10:23:41;25.50;82.60
41928;DHT22;27616;51.420;6.788;2022-07-25T10:26:13;25.50;82.40
41928;DHT22;27616;51.420;6.788;2022-07-25T10:28:45;25.50;82.20
41928;DHT22;27616;51.420;6.788;2022-07-25T10:31:24;25.50;82.80
41928;DHT22;27616;51.420;6.788;2022-07-25T10:34:04;25.50;82.10
41928;DHT22;27616;51.420;6.788;2022-07-25T10:39:09;25.40;82.20
41928;DHT22;27616;51.420;6.788;2022-07-25T10:41:40;25.40;82.70
41928;DHT22;27616;51.420;6.788;2022-07-25T10:44:11;25.40;82.70
41928;DHT22;27616;51.420;6.788;2022-07-25T10:46:37;25.40;83.30
41928;DHT22;27616;51.420;6.788;2022-07-25T10:49:07;25.40;83.70
41928;DHT22;27616;51.420;6.788;2022-07-25T10:51:35;25.40;83.70
41928;DHT22;27616;51.420;6.788;2022-07-25T10:54:12;25.40;83.10
41928;DHT22;27616;51.420;6.788;2022-07-25T10:56:53;25.50;82.10
41928;DHT22;27616;51.420;6.788;2022-07-25T10:59:33;25.60;82.00
41928;DHT22;27616;51.420;6.788;2022-07-25T11:02:00;25.70;80.60
41928;DHT22;27616;51.420;6.788;2022-07-25T11:04:27;25.70;80.00
41928;DHT22;27616;51.420;6.788;2022-07-25T11:06:53;25.80;80.10
41928;DHT22;27616;51.420;6.788;2022-07-25T11:11:48;25.90;80.40
41928;DHT22;27616;51.420;6.788;2022-07-25T11:16:55;26.00;80.70
41928;DHT22;27616;51.420;6.788;2022-07-25T11:19:26;26.00;81.50
41928;DHT22;27616;51.420;6.788;2022-07-25T11:21:58;26.00;81.60
41928;DHT22;27616;51.420;6.788;2022-07-25T11:24:41;26.00;81.30
41928;DHT22;27616;51.420;6.788;2022-07-25T11:27:09;26.00;81.80
41928;DHT22;27616;51.420;6.788;2022-07-25T11:29:35;26.10;82.10
41928;DHT22;27616;51.420;6.788;2022-07-25T11:32:07;26.20;81.40
41928;DHT22;27616;51.420;6.788;2022-07-25T11:34:34;26.20;81.70
41928;DHT22;27616;51.420;6.788;2022-07-25T11:37:02;26.30;81.70
41928;DHT22;27616;51.420;6.788;2022-07-25T11:39:33;26.30;81.70
41928;DHT22;27616;51.420;6.788;2022-07-25T11:42:17;26.30;81.70
41928;DHT22;27616;51.420;6.788;2022-07-25T11:44:52;26.30;82.10
41928;DHT22;27616;51.420;6.788;2022-07-25T11:47:25;26.20;82.50
41928;DHT22;27616;51.420;6.788;2022-07-25T11:49:52;26.30;81.70
41928;DHT22;27616;51.420;6.788;2022-07-25T11:52:36;26.30;81.60
41928;DHT22;27616;51.420;6.788;2022-07-25T11:55:04;26.30;81.30
41928;DHT22;27616;51.420;6.788;2022-07-25T11:57:34;26.30;81.50
41928;DHT22;27616;51.420;6.788;2022-07-25T12:00:08;26.30;81.70
41928;DHT22;27616;51.420;6.788;2022-07-25T12:02:35;26.30;81.70
41928;DHT22;27616;51.420;6.788;2022-07-25T12:05:09;26.30;82.50
41928;DHT22;27616;51.420;6.788;2022-07-25T12:07:40;26.30;83.50
41928;DHT22;27616;51.420;6.788;2022-07-25T12:10:12;26.30;83.80
41928;DHT22;27616;51.420;6.788;2022-07-25T12:12:46;26.40;84.30
41928;DHT22;27616;51.420;6.788;2022-07-25T12:15:14;26.40;84.10
41928;DHT22;27616;51.420;6.788;2022-07-25T12:17:40;26.40;83.80
41928;DHT22;27616;51.420;6.788;2022-07-25T12:20:31;26.40;84.50
41928;DHT22;27616;51.420;6.788;2022-07-25T12:22:59;26.40;84.10
41928;DHT22;27616;51.420;6.788;2022-07-25T12:25:26;26.40;84.10
41928;DHT22;27616;51.420;6.788;2022-07-25T12:27:54;26.40;84.20
41928;DHT22;27616;51.420;6.788;2022-07-25T12:30:20;26.50;84.00
41928;DHT22;27616;51.420;6.788;2022-07-25T12:32:46;26.50;84.10
41928;DHT22;27616;51.420;6.788;2022-07-25T12:35:13;26.50;84.60
41928;DHT22;27616;51.420;6.788;2022-07-25T12:37:40;26.50;84.40
41928;DHT22;27616;51.420;6.788;2022-07-25T12:40:06;26.50;84.40
41928;DHT22;27616;51.420;6.788;2022-07-25T12:42:32;26.50;84.60
41928;DHT22;27616;51.420;6.788;2022-07-25T12:44:58;26.50;85.50
41928;DHT22;27616;51.420;6.788;2022-07-25T12:47:26;26.50;85.20
41928;DHT22;27616;51.420;6.788;2022-07-25T12:49:52;26.60;85.20
41928;DHT22;27616;51.420;6.788;2022-07-25T12:52:18;26.60;85.70
41928;DHT22;27616;51.420;6.788;2022-07-25T12:54:44;26.50;86.30
41928;DHT22;27616;51.420;6.788;2022-07-25T12:57:10;26.50;86.80
41928;DHT22;27616;51.420;6.788;2022-07-25T12:59:36;26.60;87.10
41928;DHT22;27616;51.420;6.788;2022-07-25T13:02:03;26.70;86.80
41928;DHT22;27616;51.420;6.788;2022-07-25T13:04:29;26.60;86.30
41928;DHT22;27616;51.420;6.788;2022-07-25T13:06:55;26.70;86.20
41928;DHT22;27616;51.420;6.788;2022-07-25T13:09:22;26.60;85.40
41928;DHT22;27616;51.420;6.788;2022-07-25T13:11:48;26.60;85.40
41928;DHT22;27616;51.420;6.788;2022-07-25T13:14:14;26.70;85.60
41928;DHT22;27616;51.420;6.788;2022-07-25T13:16:43;26.70;85.90
41928;DHT22;27616;51.420;6.788;2022-07-25T13:19:09;26.70;86.00
41928;DHT22;27616;51.420;6.788;2022-07-25T13:21:36;26.70;84.50
41928;DHT22;27616;51.420;6.788;2022-07-25T13:24:02;26.70;84.30
41928;DHT22;27616;51.420;6.788;2022-07-25T13:26:28;26.80;83.20
41928;DHT22;27616;51.420;6.788;2022-07-25T13:28:54;26.80;83.20
41928;DHT22;27616;51.420;6.788;2022-07-25T13:31:20;26.70;83.90
41928;DHT22;27616;51.420;6.788;2022-07-25T13:33:49;26.70;84.30
41928;DHT22;27616;51.420;6.788;2022-07-25T13:36:15;26.80;84.00
41928;DHT22;27616;51.420;6.788;2022-07-25T13:38:42;26.80;83.90
41928;DHT22;27616;51.420;6.788;2022-07-25T13:41:09;26.70;84.30
41928;DHT22;27616;51.420;6.788;2022-07-25T13:43:36;26.70;83.90
41928;DHT22;27616;51.420;6.788;2022-07-25T13:46:02;26.60;84.10
41928;DHT22;27616;51.420;6.788;2022-07-25T13:48:28;26.70;83.00
41928;DHT22;27616;51.420;6.788;2022-07-25T13:50:55;26.70;82.80
41928;DHT22;27616;51.420;6.788;2022-07-25T13:53:21;26.70;81.70
41928;DHT22;27616;51.420;6.788;2022-07-25T13:55:47;26.60;82.30
41928;DHT22;27616;51.420;6.788;2022-07-25T13:58:13;26.60;81.90
41928;DHT22;27616;51.420;6.788;2022-07-25T14:00:40;26.50;81.80
41928;DHT22;27616;51.420;6.788;2022-07-25T14:03:05;26.50;81.70
41928;DHT22;27616;51.420;6.788;2022-07-25T14:05:31;26.50;82.00
41928;DHT22;27616;51.420;6.788;2022-07-25T14:08:00;26.40;82.00
41928;DHT22;27616;51.420;6.788;2022-07-25T14:10:26;26.40;81.90
41928;DHT22;27616;51.420;6.788;2022-07-25T14:12:52;26.40;81.60
41928;DHT22;27616;51.420;6.788;2022-07-25T14:15:18;26.40;82.10
41928;DHT22;27616;51.420;6.788;2022-07-25T14:17:44;26.30;82.50
41928;DHT22;27616;51.420;6.788;2022-07-25T14:20:11;26.20;83.00
41928;DHT22;27616;51.420;6.788;2022-07-25T14:22:38;26.20;82.70
41928;DHT22;27616;51.420;6.788;2022-07-25T14:25:05;26.10;83.30
41928;DHT22;27616;51.420;6.788;2022-07-25T14:27:32;26.20;83.50
41928;DHT22;27616;51.420;6.788;2022-07-25T14:29:58;26.20;83.40
41928;DHT22;27616;51.420;6.788;2022-07-25T14:32:24;26.30;83.50
41928;DHT22;27616;51.420;6.788;2022-07-25T14:34:50;26.30;83.70
41928;DHT22;27616;51.420;6.788;2022-07-25T14:37:20;26.30;83.10
41928;DHT22;27616;51.420;6.788;2022-07-25T14:39:48;26.30;84.10
41928;DHT22;27616;51.420;6.788;2022-07-25T14:42:14;26.20;84.60
41928;DHT22;27616;51.420;6.788;2022-07-25T14:44:40;26.20;84.10
41928;DHT22;27616;51.420;6.788;2022-07-25T14:47:06;26.20;84.50
41928;DHT22;27616;51.420;6.788;2022-07-25T14:49:32;26.20;84.50
41928;DHT22;27616;51.420;6.788;2022-07-25T14:51:58;26.20;84.50
41928;DHT22;27616;51.420;6.788;2022-07-25T14:54:24;26.10;85.30
41928;DHT22;27616;51.420;6.788;2022-07-25T14:56:53;26.00;85.50
41928;DHT22;27616;51.420;6.788;2022-07-25T14:59:19;26.00;85.80
41928;DHT22;27616;51.420;6.788;2022-07-25T15:01:45;26.00;85.90
41928;DHT22;27616;51.420;6.788;2022-07-25T15:04:11;26.00;86.00
41928;DHT22;27616;51.420;6.788;2022-07-25T15:06:37;25.90;86.30
41928;DHT22;27616;51.420;6.788;2022-07-25T15:09:03;25.90;86.30
41928;DHT22;27616;51.420;6.788;2022-07-25T15:11:29;25.80;86.10
41928;DHT22;27616;51.420;6.788;2022-07-25T15:13:55;25.70;86.50
41928;DHT22;27616;51.420;6.788;2022-07-25T15:16:22;25.60;86.70
41928;DHT22;27616;51.420;6.788;2022-07-25T15:18:48;25.60;87.00
41928;DHT22;27616;51.420;6.788;2022-07-25T15:21:13;25.60;86.70
41928;DHT22;27616;51.420;6.788;2022-07-25T15:23:39;25.50;86.40
41928;DHT22;27616;51.420;6.788;2022-07-25T15:26:05;25.50;86.20
41928;DHT22;27616;51.420;6.788;2022-07-25T15:28:32;25.50;86.60
41928;DHT22;27616;51.420;6.788;2022-07-25T15:30:58;25.50;86.40
41928;DHT22;27616;51.420;6.788;2022-07-25T15:33:24;25.70;85.60
41928;DHT22;27616;51.420;6.788;2022-07-25T15:35:51;25.80;84.40
41928;DHT22;27616;51.420;6.788;2022-07-25T15:38:17;25.80;83.30